createdAt,value
2023-04-18T00:00:24.822Z,0.50
2023-04-18T00:03:16.249Z,0.40
2023-04-18T00:05:47.474Z,0.30
2023-04-18T00:08:15.524Z,0.30
2023-04-18T00:10:43.517Z,0.20
2023-04-18T00:13:12.305Z,0.30
2023-04-18T00:15:41.924Z,0.20
2023-04-18T00:18:10.524Z,0.30
2023-04-18T00:20:39.393Z,0.30
2023-04-18T00:23:08.070Z,0.30
2023-04-18T00:25:36.053Z,0.40
2023-04-18T00:28:04.011Z,0.40
2023-04-18T00:30:32.244Z,0.60
2023-04-18T00:33:00.506Z,0.30
2023-04-18T00:35:28.859Z,0.30
2023-04-18T00:37:56.926Z,0.30
2023-04-18T00:40:25.517Z,0.40
2023-04-18T00:42:53.985Z,0.20
2023-04-18T00:45:22.463Z,0.20
2023-04-18T00:47:50.484Z,0.30
2023-04-18T00:50:18.532Z,0.20
2023-04-18T00:52:46.995Z,0.30
2023-04-18T00:55:15.050Z,0.30
2023-04-18T00:57:43.335Z,0.30
2023-04-18T01:00:12.383Z,0.40
2023-04-18T01:02:41.326Z,0.30
2023-04-18T01:05:10.010Z,0.20
2023-04-18T01:07:40.734Z,0.20
2023-04-18T01:10:10.115Z,0.30
2023-04-18T01:12:38.318Z,0.30
2023-04-18T01:15:07.394Z,0.30
2023-04-18T01:17:36.387Z,0.40
2023-04-18T01:20:06.457Z,0.30
2023-04-18T01:22:34.421Z,0.10
2023-04-18T01:25:07.192Z,0.30
2023-04-18T01:27:35.447Z,0.30
2023-04-18T01:30:04.247Z,0.20
2023-04-18T01:32:32.229Z,0.30
2023-04-18T01:35:00.485Z,0.20
2023-04-18T01:37:28.453Z,0.30
2023-04-18T01:39:58.399Z,0.20
2023-04-18T01:42:26.650Z,0.20
2023-04-18T01:44:54.824Z,0.30
2023-04-18T01:47:22.926Z,0.30
2023-04-18T01:49:50.836Z,0.40
2023-04-18T01:52:18.940Z,0.30
2023-04-18T01:54:46.989Z,0.50
2023-04-18T01:57:15.387Z,0.30
2023-04-18T01:59:43.260Z,0.20
2023-04-18T02:02:11.504Z,0.20
2023-04-18T02:04:39.729Z,0.20
2023-04-18T02:07:07.779Z,0.50
2023-04-18T02:09:36.681Z,0.20
2023-04-18T02:12:05.069Z,0.40
2023-04-18T02:14:35.028Z,0.30
2023-04-18T02:17:03.348Z,0.20
2023-04-18T02:21:59.488Z,0.20
2023-04-18T02:24:27.419Z,0.20
2023-04-18T02:26:55.418Z,0.30
2023-04-18T02:29:23.591Z,0.20
2023-04-18T02:31:51.618Z,0.30
2023-04-18T02:34:19.663Z,0.40
2023-04-18T02:36:49.447Z,0.20
2023-04-18T02:39:17.519Z,0.20
2023-04-18T02:41:45.698Z,0.30
2023-04-18T02:44:14.138Z,0.40
2023-04-18T02:46:43.063Z,0.30
2023-04-18T02:49:13.495Z,0.20
2023-04-18T02:51:41.570Z,0.30
2023-04-18T02:54:09.735Z,0.10
2023-04-18T02:56:48.060Z,0.20
2023-04-18T02:59:36.302Z,0.20
2023-04-18T03:02:26.314Z,0.10
2023-04-18T03:04:57.089Z,0.20
2023-04-18T03:07:25.288Z,0.40
2023-04-18T03:12:28.304Z,0.30
2023-04-18T03:14:56.411Z,0.10
2023-04-18T03:19:53.461Z,0.10
2023-04-18T03:22:21.778Z,0.20
2023-04-18T03:24:56.234Z,0.20
2023-04-18T03:27:32.607Z,0.20
2023-04-18T03:30:01.995Z,0.20
2023-04-18T03:32:33.938Z,0.20
2023-04-18T03:35:02.968Z,0.20
2023-04-18T03:37:31.032Z,0.20
2023-04-18T03:40:00.949Z,0.20
2023-04-18T03:42:29.735Z,0.30
2023-04-18T03:44:58.222Z,0.10
2023-04-18T03:47:26.860Z,0.30
2023-04-18T03:49:57.405Z,0.30
2023-04-18T03:52:27.516Z,0.20
2023-04-18T03:54:57.240Z,0.20
2023-04-18T03:57:27.397Z,0.20
2023-04-18T03:59:55.501Z,0.20
2023-04-18T04:02:23.793Z,0.20
2023-04-18T04:04:52.131Z,0.30
2023-04-18T04:07:20.895Z,0.30
2023-04-18T04:12:17.556Z,0.10
2023-04-18T04:14:45.513Z,0.20
2023-04-18T04:19:41.802Z,0.30
2023-04-18T04:22:13.636Z,0.30
2023-04-18T04:24:42.960Z,0.30
2023-04-18T04:27:13.668Z,0.20
2023-04-18T04:29:43.904Z,0.90
2023-04-18T04:32:13.642Z,2.30
2023-04-18T04:34:42.500Z,2.40
2023-04-18T04:37:18.855Z,11.10
2023-04-18T04:40:01.059Z,9.30
2023-04-18T04:42:41.419Z,6.40
2023-04-18T04:45:15.239Z,6.80
2023-04-18T04:47:44.194Z,6.80
2023-04-18T04:50:15.771Z,11.20
2023-04-18T04:52:44.049Z,11.90
2023-04-18T04:55:12.118Z,11.20
2023-04-18T04:57:41.727Z,8.50
2023-04-18T05:00:27.009Z,8.50
2023-04-18T05:02:55.943Z,8.20
2023-04-18T05:05:24.792Z,7.80
2023-04-18T05:07:52.853Z,7.60
2023-04-18T05:10:21.946Z,6.90
2023-04-18T05:12:50.027Z,8.10
2023-04-18T05:15:18.505Z,6.60
2023-04-18T05:17:46.747Z,6.00
2023-04-18T05:20:15.171Z,6.80
2023-04-18T05:22:43.434Z,6.00
2023-04-18T05:25:12.605Z,7.60
2023-04-18T05:27:40.809Z,4.50
2023-04-18T05:30:09.493Z,5.50
2023-04-18T05:32:39.207Z,5.90
2023-04-18T05:35:08.121Z,5.30
2023-04-18T05:37:36.411Z,6.10
2023-04-18T05:42:33.233Z,5.30
2023-04-18T05:45:01.304Z,5.40
2023-04-18T05:47:30.595Z,5.10
2023-04-18T05:49:58.682Z,5.00
2023-04-18T05:52:26.860Z,4.80
2023-04-18T05:54:55.045Z,5.30
2023-04-18T05:57:23.514Z,3.80
2023-04-18T05:59:51.475Z,4.70
2023-04-18T06:02:19.566Z,3.80
2023-04-18T06:04:49.268Z,4.40
2023-04-18T06:07:17.430Z,4.00
2023-04-18T06:09:45.723Z,3.60
2023-04-18T06:14:41.569Z,2.90
2023-04-18T06:17:10.307Z,2.60
2023-04-18T06:19:39.754Z,2.40
2023-04-18T06:22:08.337Z,3.40
2023-04-18T06:24:37.443Z,2.70
2023-04-18T06:27:05.608Z,2.20
2023-04-18T06:29:35.577Z,2.80
2023-04-18T06:32:05.021Z,2.30
2023-04-18T06:34:33.141Z,2.10
2023-04-18T06:37:01.120Z,2.10
2023-04-18T06:39:29.136Z,2.40
2023-04-18T06:41:58.118Z,2.50
2023-04-18T06:44:29.606Z,2.00
2023-04-18T06:49:26.696Z,1.80
2023-04-18T06:51:55.031Z,1.90
2023-04-18T06:56:51.365Z,1.70
2023-04-18T06:59:21.644Z,1.90
2023-04-18T07:01:50.870Z,1.70
2023-04-18T07:04:19.538Z,1.60
2023-04-18T07:06:48.070Z,1.80
2023-04-18T07:09:17.392Z,1.20
2023-04-18T07:11:45.446Z,0.90
2023-04-18T07:14:13.688Z,1.60
2023-04-18T07:16:42.081Z,1.30
2023-04-18T07:21:40.785Z,1.10
2023-04-18T07:24:08.755Z,1.10
2023-04-18T07:26:38.473Z,1.70
2023-04-18T07:29:06.659Z,1.20
2023-04-18T07:31:35.008Z,1.10
2023-04-18T07:34:03.298Z,1.30
2023-04-18T07:36:31.771Z,1.20
2023-04-18T07:38:59.840Z,0.90
2023-04-18T07:41:28.029Z,1.20
2023-04-18T07:43:56.087Z,1.10
2023-04-18T07:46:24.207Z,1.10
2023-04-18T07:48:52.344Z,0.90
2023-04-18T07:53:48.793Z,1.00
2023-04-18T07:56:16.864Z,0.90
2023-04-18T07:58:44.825Z,0.90
2023-04-18T08:01:15.479Z,1.00
2023-04-18T08:03:43.764Z,0.90
2023-04-18T08:06:12.118Z,0.80
2023-04-18T08:08:40.196Z,1.00
2023-04-18T08:11:08.234Z,0.90
2023-04-18T08:13:36.334Z,1.00
2023-04-18T08:16:04.548Z,1.00
2023-04-18T08:18:32.802Z,0.90
2023-04-18T08:21:00.865Z,0.80
2023-04-18T08:23:28.971Z,0.80
2023-04-18T08:28:27.642Z,0.70
2023-04-18T08:30:56.701Z,1.10
2023-04-18T08:33:24.912Z,0.90
2023-04-18T08:38:20.873Z,0.50
2023-04-18T08:40:49.017Z,1.00
2023-04-18T08:43:17.294Z,0.90
2023-04-18T08:46:03.378Z,0.90
2023-04-18T08:48:52.761Z,1.00
2023-04-18T08:51:22.367Z,0.80
2023-04-18T08:53:50.835Z,0.90
2023-04-18T08:56:22.458Z,1.00
2023-04-18T08:58:50.884Z,0.70
2023-04-18T09:01:19.098Z,0.60
2023-04-18T09:04:06.421Z,0.80
2023-04-18T09:06:36.181Z,0.90
2023-04-18T09:09:04.574Z,0.90
2023-04-18T09:11:34.472Z,0.70
2023-04-18T09:14:02.806Z,1.00
2023-04-18T09:16:34.411Z,1.20
2023-04-18T09:19:13.617Z,1.00
2023-04-18T09:21:44.508Z,0.90
2023-04-18T09:24:30.575Z,0.80
2023-04-18T09:26:59.993Z,1.00
2023-04-18T09:29:49.602Z,0.80
2023-04-18T09:32:27.683Z,0.90
2023-04-18T09:35:03.936Z,1.40
2023-04-18T09:37:32.616Z,1.70
2023-04-18T09:40:00.688Z,1.60
2023-04-18T09:42:29.882Z,1.60
2023-04-18T09:45:03.902Z,1.70
2023-04-18T09:47:35.124Z,1.50
2023-04-18T09:50:08.398Z,4.30
2023-04-18T09:52:37.849Z,4.20
2023-04-18T09:55:07.776Z,4.10
2023-04-18T09:57:36.544Z,4.10
2023-04-18T10:00:08.814Z,3.20
2023-04-18T10:03:00.604Z,2.70
2023-04-18T10:05:31.778Z,2.70
2023-04-18T10:08:00.100Z,2.90
2023-04-18T10:12:57.425Z,2.30
2023-04-18T10:15:27.054Z,2.30
2023-04-18T10:18:05.818Z,2.40
2023-04-18T10:20:35.456Z,2.30
2023-04-18T10:23:34.873Z,2.40
2023-04-18T10:26:04.076Z,2.30
2023-04-18T10:28:54.920Z,1.90
2023-04-18T10:31:24.542Z,1.90
2023-04-18T10:36:28.908Z,2.00
2023-04-18T10:39:20.321Z,2.30
2023-04-18T10:41:50.632Z,1.70
2023-04-18T10:44:20.786Z,2.10
2023-04-18T10:46:51.854Z,1.70
2023-04-18T10:54:58.373Z,1.90
2023-04-18T10:57:38.189Z,1.90
2023-04-18T11:00:11.441Z,1.60
2023-04-18T11:02:40.502Z,2.00
2023-04-18T11:05:09.869Z,1.60
2023-04-18T11:07:39.516Z,1.70
2023-04-18T11:10:09.174Z,1.50
2023-04-18T11:12:38.920Z,1.50
2023-04-18T11:15:15.312Z,1.30
2023-04-18T11:17:43.900Z,1.70
2023-04-18T11:20:14.016Z,1.70
2023-04-18T11:22:48.981Z,1.50
2023-04-18T11:25:17.712Z,4.30
2023-04-18T11:27:51.729Z,1.50
2023-04-18T11:30:19.901Z,1.50
2023-04-18T11:32:48.071Z,2.00
2023-04-18T11:35:16.407Z,3.10
2023-04-18T11:37:46.121Z,2.70
2023-04-18T11:40:14.569Z,3.10
2023-04-18T11:42:42.698Z,2.50
2023-04-18T11:45:12.103Z,2.20
2023-04-18T11:47:41.881Z,2.10
2023-04-18T11:50:11.634Z,1.90
2023-04-18T11:52:41.341Z,2.20
2023-04-18T11:55:18.630Z,2.20
2023-04-18T12:03:17.344Z,1.70
2023-04-18T12:05:46.133Z,1.80
2023-04-18T12:08:19.141Z,1.80
2023-04-18T12:10:50.908Z,1.60
2023-04-18T12:13:19.475Z,1.40
2023-04-18T12:23:37.211Z,2.00
2023-04-18T12:26:07.127Z,2.00
2023-04-18T12:28:35.548Z,1.90
2023-04-18T12:31:07.123Z,1.80
2023-04-18T12:33:36.883Z,1.90
2023-04-18T12:36:06.226Z,1.30
2023-04-18T12:38:34.285Z,1.10
2023-04-18T12:41:02.572Z,1.20
2023-04-18T12:43:30.747Z,1.30
2023-04-18T12:45:59.720Z,1.10
2023-04-18T12:48:28.112Z,1.10
2023-04-18T12:50:56.281Z,1.20
2023-04-18T12:55:52.336Z,1.70
2023-04-18T12:58:21.009Z,1.80
2023-04-18T13:00:49.317Z,1.70
2023-04-18T13:03:17.692Z,3.90
2023-04-18T13:05:46.253Z,2.10
2023-04-18T13:08:17.560Z,1.70
2023-04-18T13:10:47.769Z,1.50
2023-04-18T13:13:16.173Z,1.30
2023-04-18T13:15:44.274Z,1.50
2023-04-18T13:18:12.548Z,1.10
2023-04-18T13:20:40.925Z,1.20
2023-04-18T13:23:09.008Z,1.30
2023-04-18T13:28:05.865Z,1.10
2023-04-18T13:30:35.746Z,1.20
2023-04-18T13:33:04.116Z,1.10
2023-04-18T13:35:33.558Z,1.30
2023-04-18T13:38:01.625Z,1.40
2023-04-18T13:40:29.789Z,1.20
2023-04-18T13:42:58.085Z,1.30
2023-04-18T13:47:54.268Z,1.10
2023-04-18T13:50:23.529Z,1.50
2023-04-18T13:52:52.234Z,1.50
2023-04-18T13:55:20.292Z,1.10
2023-04-18T13:57:48.559Z,1.00
2023-04-18T14:02:45.400Z,1.10
2023-04-18T14:05:13.901Z,1.00
2023-04-18T14:07:42.292Z,1.10
2023-04-18T14:10:11.136Z,1.20
2023-04-18T14:12:40.131Z,1.20
2023-04-18T14:15:09.476Z,1.50
2023-04-18T14:17:37.570Z,1.40
2023-04-18T14:20:06.843Z,1.40
2023-04-18T14:22:34.921Z,1.90
2023-04-18T14:27:31.267Z,1.70
2023-04-18T14:32:29.372Z,1.70
2023-04-18T14:34:59.060Z,1.80
2023-04-18T14:37:27.025Z,1.90
2023-04-18T14:39:55.100Z,2.10
2023-04-18T14:42:23.293Z,1.80
2023-04-18T14:44:51.437Z,1.70
2023-04-18T14:47:20.137Z,2.30
2023-04-18T14:49:48.229Z,2.30
2023-04-18T14:52:16.105Z,1.90
2023-04-18T14:54:44.177Z,2.10
2023-04-18T14:57:13.141Z,2.00
2023-04-18T14:59:41.204Z,2.50
2023-04-18T15:02:09.210Z,2.50
2023-04-18T15:04:37.549Z,2.50
2023-04-18T15:07:06.240Z,2.10
2023-04-18T15:09:37.872Z,2.20
2023-04-18T15:12:06.691Z,2.40
2023-04-18T15:14:35.898Z,2.30
2023-04-18T15:17:05.695Z,2.40
2023-04-18T15:19:33.762Z,2.20
2023-04-18T15:22:02.042Z,1.70
2023-04-18T15:26:59.076Z,2.20
2023-04-18T15:29:27.311Z,2.50
2023-04-18T15:31:55.491Z,2.30
2023-04-18T15:44:02.845Z,1.90
2023-04-18T15:46:30.812Z,2.10
2023-04-18T15:48:59.078Z,1.60
2023-04-18T15:51:28.523Z,2.20
2023-04-18T15:53:56.762Z,2.20
2023-04-18T15:58:57.688Z,2.10
2023-04-18T16:01:25.776Z,1.90
2023-04-18T16:03:53.999Z,1.60
2023-04-18T16:08:51.515Z,2.10
2023-04-18T16:13:47.964Z,2.20
2023-04-18T16:16:16.985Z,2.20
2023-04-18T16:18:45.449Z,2.20
2023-04-18T16:21:15.082Z,2.10
2023-04-18T16:23:43.539Z,2.90
2023-04-18T16:26:11.608Z,3.50
2023-04-18T16:31:07.700Z,1.80
2023-04-18T16:33:35.849Z,1.80
2023-04-18T16:36:04.824Z,1.50
2023-04-18T16:38:33.086Z,1.80
2023-04-18T16:43:36.639Z,1.40
2023-04-18T16:48:33.190Z,2.40
2023-04-18T16:51:01.238Z,2.40
2023-04-18T16:53:29.318Z,2.30
2023-04-18T16:55:57.715Z,2.10
2023-04-18T16:58:26.155Z,1.80
2023-04-18T17:00:55.076Z,2.50
2023-04-18T17:05:51.505Z,2.30
2023-04-18T17:08:19.610Z,2.40
2023-04-18T17:10:47.661Z,2.00
2023-04-18T17:13:15.729Z,2.30
2023-04-18T17:15:44.470Z,2.10
2023-04-18T17:18:12.796Z,2.10
2023-04-18T17:20:41.173Z,2.00
2023-04-18T17:23:09.167Z,2.30
2023-04-18T17:25:37.213Z,2.10
2023-04-18T17:28:05.400Z,1.90
2023-04-18T17:33:01.682Z,1.70
2023-04-18T17:35:29.916Z,2.20
2023-04-18T17:37:58.181Z,2.00
2023-04-18T17:42:54.536Z,2.00
2023-04-18T17:45:22.630Z,2.00
2023-04-18T17:47:51.053Z,2.00
2023-04-18T17:50:19.667Z,2.00
2023-04-18T17:55:15.940Z,1.60
2023-04-18T17:57:44.078Z,1.70
2023-04-18T18:00:13.913Z,1.90
2023-04-18T18:02:43.032Z,1.90
2023-04-18T18:05:13.554Z,1.90
2023-04-18T18:07:46.004Z,2.00
2023-04-18T18:10:19.076Z,1.70
2023-04-18T18:12:47.161Z,1.70
2023-04-18T18:15:15.543Z,2.00
2023-04-18T18:17:43.637Z,2.30
2023-04-18T18:20:12.193Z,2.20
2023-04-18T18:22:40.884Z,1.90
2023-04-18T18:25:09.562Z,2.10
2023-04-18T18:27:37.808Z,2.10
2023-04-18T18:32:34.432Z,2.10
2023-04-18T18:35:02.750Z,2.40
2023-04-18T18:37:33.219Z,2.00
2023-04-18T18:40:04.744Z,2.20
2023-04-18T18:42:33.036Z,1.80
2023-04-18T18:45:01.850Z,2.40
2023-04-18T18:47:30.821Z,2.20
2023-04-18T18:49:58.987Z,1.70
2023-04-18T18:52:29.864Z,2.20
2023-04-18T18:54:58.094Z,2.00
2023-04-18T18:57:26.383Z,2.10
2023-04-18T18:59:55.873Z,2.20
2023-04-18T19:02:24.538Z,2.10
2023-04-18T19:04:53.310Z,1.80
2023-04-18T19:07:21.527Z,1.60
2023-04-18T19:09:49.717Z,1.80
2023-04-18T19:14:47.600Z,1.70
2023-04-18T19:17:18.040Z,2.00
2023-04-18T19:19:46.194Z,2.00
2023-04-18T19:24:42.387Z,2.00
2023-04-18T19:27:10.518Z,1.50
2023-04-18T19:32:08.505Z,1.70
2023-04-18T19:34:37.422Z,1.70
2023-04-18T19:37:05.570Z,1.60
2023-04-18T19:39:33.650Z,1.50
2023-04-18T19:42:02.835Z,1.80
2023-04-18T19:44:31.324Z,1.40
2023-04-18T19:46:59.511Z,1.50
2023-04-18T19:51:56.148Z,1.60
2023-04-18T19:56:52.183Z,1.50
2023-04-18T19:59:20.358Z,1.70
2023-04-18T20:01:48.538Z,1.10
2023-04-18T20:06:45.504Z,1.50
2023-04-18T20:09:16.952Z,1.70
2023-04-18T20:11:46.657Z,1.70
2023-04-18T20:14:14.945Z,1.60
2023-04-18T20:16:43.119Z,1.80
2023-04-18T20:21:41.404Z,1.30
2023-04-18T20:24:09.886Z,1.60
2023-04-18T20:26:37.958Z,1.60
2023-04-18T20:29:06.033Z,1.80
2023-04-18T20:31:35.234Z,1.70
2023-04-18T20:34:03.302Z,2.00
2023-04-18T20:36:32.298Z,1.70
2023-04-18T20:39:02.525Z,1.70
2023-04-18T20:41:32.646Z,1.60
2023-04-18T20:44:05.341Z,1.80
2023-04-18T20:46:33.534Z,1.90
2023-04-18T20:49:01.778Z,1.60
2023-04-18T20:53:58.132Z,1.60
2023-04-18T20:58:54.572Z,1.70
2023-04-18T21:01:22.977Z,1.90
2023-04-18T21:03:51.426Z,1.80
2023-04-18T21:06:22.198Z,1.60
2023-04-18T21:08:50.948Z,1.80
2023-04-18T21:11:19.134Z,1.80
2023-04-18T21:13:47.086Z,1.60
2023-04-18T21:16:15.310Z,1.60
2023-04-18T21:18:43.774Z,1.70
2023-04-18T21:23:43.819Z,2.00
2023-04-18T21:26:13.234Z,2.10
2023-04-18T21:29:04.735Z,2.30
2023-04-18T21:31:33.833Z,1.70
2023-04-18T21:34:04.256Z,1.80
2023-04-18T21:36:32.718Z,1.60
2023-04-18T21:39:01.036Z,1.50
2023-04-18T21:41:29.671Z,1.70
2023-04-18T21:43:57.943Z,2.00
2023-04-18T21:46:26.582Z,1.30
2023-04-18T21:48:54.729Z,1.60
2023-04-18T21:51:22.786Z,1.40
2023-04-18T21:53:51.055Z,1.50
2023-04-18T21:56:19.140Z,1.60
2023-04-18T21:58:47.811Z,1.50
2023-04-18T22:01:15.750Z,1.60
2023-04-18T22:03:43.972Z,1.70
2023-04-18T22:06:12.543Z,1.80
2023-04-18T22:08:42.260Z,1.60
2023-04-18T22:11:11.886Z,1.50
2023-04-18T22:13:39.917Z,1.70
2023-04-18T22:16:09.573Z,1.80
2023-04-18T22:18:38.081Z,1.40
2023-04-18T22:21:06.905Z,1.60
2023-04-18T22:23:34.995Z,1.50
2023-04-18T22:26:03.055Z,2.00
2023-04-18T22:28:31.232Z,1.60
2023-04-18T22:31:00.061Z,1.40
2023-04-18T22:33:28.607Z,1.70
2023-04-18T22:35:56.691Z,1.50
2023-04-18T22:38:25.358Z,1.80
2023-04-18T22:40:53.639Z,1.80
2023-04-18T22:43:23.757Z,1.50
2023-04-18T22:45:51.992Z,1.50
2023-04-18T22:48:20.442Z,1.30
2023-04-18T22:53:18.506Z,1.30
2023-04-18T22:55:46.902Z,1.70
2023-04-18T22:58:15.158Z,1.40
2023-04-18T23:00:43.440Z,1.80
2023-04-18T23:03:11.677Z,1.70
2023-04-18T23:05:40.206Z,1.80
2023-04-18T23:08:08.490Z,1.60
2023-04-18T23:10:36.745Z,1.50
2023-04-18T23:13:04.712Z,1.30
2023-04-18T23:18:01.384Z,1.30
2023-04-18T23:20:29.447Z,1.40
2023-04-18T23:22:57.729Z,1.60
2023-04-18T23:27:53.866Z,1.10
2023-04-18T23:30:22.034Z,1.40
2023-04-18T23:32:50.150Z,1.50
2023-04-18T23:37:46.368Z,1.60
2023-04-18T23:42:44.437Z,1.50
2023-04-18T23:45:12.936Z,1.70
2023-04-18T23:47:41.056Z,1.40
2023-04-18T23:50:09.794Z,1.20
2023-04-18T23:52:39.124Z,1.40
2023-04-18T23:55:07.869Z,1.60
2023-04-18T23:57:36.058Z,1.40
